createdAt,value
2018-09-09T00:02:11.255Z,14.40
2018-09-09T00:07:14.292Z,14.40
2018-09-09T00:12:17.669Z,14.30
2018-09-09T00:17:20.716Z,14.30
2018-09-09T00:22:23.773Z,14.30
2018-09-09T00:27:26.776Z,14.30
2018-09-09T00:32:29.805Z,14.30
2018-09-09T00:37:32.805Z,14.30
2018-09-09T00:42:35.918Z,14.20
2018-09-09T00:47:38.953Z,14.10
2018-09-09T00:52:47.527Z,14.10
2018-09-09T00:57:50.667Z,14.10
2018-09-09T01:02:53.671Z,14.10
2018-09-09T01:07:56.728Z,14.20
2018-09-09T01:13:00.153Z,14.20
2018-09-09T01:18:05.332Z,14.20
2018-09-09T01:23:08.349Z,14.30
2018-09-09T01:28:11.450Z,14.30
2018-09-09T01:33:14.498Z,14.30
2018-09-09T01:38:17.642Z,14.30
2018-09-09T01:43:20.710Z,14.30
2018-09-09T01:48:23.864Z,14.30
2018-09-09T01:53:26.953Z,14.30
2018-09-09T01:59:33.723Z,14.30
2018-09-09T02:04:36.849Z,14.20
2018-09-09T02:09:39.963Z,14.30
2018-09-09T02:14:43.061Z,14.20
2018-09-09T02:19:46.098Z,14.20
2018-09-09T02:24:49.129Z,14.20
2018-09-09T02:29:52.318Z,14.10
2018-09-09T02:34:55.428Z,14.10
2018-09-09T02:39:58.453Z,14.10
2018-09-09T02:45:01.549Z,14.00
2018-09-09T02:50:04.814Z,14.00
2018-09-09T02:55:07.878Z,13.90
2018-09-09T03:00:10.932Z,13.90
2018-09-09T03:05:14.010Z,14.00
2018-09-09T03:10:17.032Z,14.00
2018-09-09T03:15:20.123Z,14.00
2018-09-09T03:20:23.279Z,14.10
2018-09-09T03:25:26.341Z,14.10
2018-09-09T03:30:29.407Z,14.00
2018-09-09T03:35:32.488Z,14.00
2018-09-09T03:40:35.512Z,14.00
2018-09-09T03:45:38.516Z,14.00
2018-09-09T03:50:41.576Z,13.90
2018-09-09T03:55:45.568Z,13.90
2018-09-09T04:00:48.615Z,13.80
2018-09-09T04:05:51.646Z,13.80
2018-09-09T04:10:54.687Z,13.80
2018-09-09T04:15:57.731Z,13.70
2018-09-09T04:21:00.768Z,13.70
2018-09-09T04:26:03.910Z,13.70
2018-09-09T04:31:07.048Z,13.60
2018-09-09T04:36:10.070Z,13.60
2018-09-09T04:41:13.116Z,13.60
2018-09-09T04:46:16.175Z,13.60
2018-09-09T04:51:19.155Z,13.60
2018-09-09T04:56:22.275Z,13.70
2018-09-09T05:01:25.492Z,13.60
2018-09-09T05:06:28.480Z,13.60
2018-09-09T05:11:31.540Z,13.60
2018-09-09T05:16:34.615Z,13.60
2018-09-09T05:21:37.744Z,13.60
2018-09-09T05:26:40.835Z,13.70
2018-09-09T05:31:44.008Z,13.80
2018-09-09T05:36:47.163Z,13.90
2018-09-09T05:41:50.205Z,14.10
2018-09-09T05:46:53.335Z,14.20
2018-09-09T05:51:56.383Z,14.20
2018-09-09T05:56:59.616Z,14.20
2018-09-09T06:02:03.755Z,14.30
2018-09-09T06:07:06.983Z,14.40
2018-09-09T06:12:10.188Z,14.40
2018-09-09T06:17:13.390Z,14.60
2018-09-09T06:22:16.479Z,14.80
2018-09-09T06:27:19.564Z,14.90
2018-09-09T06:32:22.583Z,15.00
2018-09-09T06:37:25.701Z,15.30
2018-09-09T06:42:28.716Z,15.50
2018-09-09T06:47:31.800Z,15.60
2018-09-09T06:52:34.846Z,16.00
2018-09-09T06:57:37.832Z,16.10
2018-09-09T07:02:41.027Z,16.10
2018-09-09T07:07:44.131Z,16.30
2018-09-09T07:12:47.167Z,16.40
2018-09-09T07:17:51.288Z,16.70
2018-09-09T07:22:54.917Z,16.90
2018-09-09T07:27:58.016Z,17.00
2018-09-09T07:33:01.036Z,17.30
2018-09-09T07:38:04.111Z,17.60
2018-09-09T07:43:07.338Z,18.30
2018-09-09T07:48:10.397Z,19.30
2018-09-09T07:53:13.429Z,21.30
2018-09-09T07:58:16.727Z,23.10
2018-09-09T08:03:19.782Z,22.70
2018-09-09T08:08:22.834Z,24.00
2018-09-09T08:13:25.954Z,24.40
2018-09-09T08:18:29.153Z,25.70
2018-09-09T08:23:32.132Z,26.40
2018-09-09T08:28:35.195Z,27.50
2018-09-09T08:33:40.383Z,26.90
2018-09-09T08:38:43.584Z,26.90
2018-09-09T08:43:46.625Z,26.60
2018-09-09T08:48:49.737Z,26.80
2018-09-09T08:53:52.910Z,26.30
2018-09-09T08:58:55.984Z,25.30
2018-09-09T09:03:59.010Z,24.60
2018-09-09T09:09:02.152Z,23.70
2018-09-09T09:14:05.300Z,23.20
2018-09-09T09:19:08.575Z,22.90
2018-09-09T09:24:11.629Z,22.90
2018-09-09T09:29:14.783Z,23.00
2018-09-09T09:34:17.886Z,23.10
2018-09-09T09:39:22.392Z,23.00
2018-09-09T09:44:25.437Z,23.10
2018-09-09T09:49:28.693Z,23.10
2018-09-09T09:54:31.816Z,23.20
2018-09-09T09:59:34.892Z,23.00
2018-09-09T10:04:38.023Z,23.00
2018-09-09T10:09:41.070Z,23.10
2018-09-09T10:14:44.213Z,23.10
2018-09-09T10:19:47.350Z,23.00
2018-09-09T10:24:50.436Z,22.90
2018-09-09T10:29:53.539Z,23.10
2018-09-09T10:34:56.604Z,22.90
2018-09-09T10:39:59.683Z,22.80
2018-09-09T10:45:02.696Z,22.80
2018-09-09T10:50:06.368Z,22.90
2018-09-09T10:55:09.395Z,23.10
2018-09-09T11:00:12.431Z,23.30
2018-09-09T11:05:15.514Z,23.30
2018-09-09T11:10:18.715Z,23.30
2018-09-09T11:15:21.921Z,23.10
2018-09-09T11:20:26.053Z,23.20
2018-09-09T11:25:29.097Z,23.10
2018-09-09T11:30:32.168Z,23.40
2018-09-09T11:35:35.251Z,23.70
2018-09-09T11:40:38.363Z,23.80
2018-09-09T11:45:41.399Z,23.90
2018-09-09T11:50:44.617Z,23.80
2018-09-09T11:55:47.776Z,23.90
2018-09-09T12:00:50.840Z,24.10
2018-09-09T12:05:53.876Z,24.10
2018-09-09T12:10:56.908Z,24.10
2018-09-09T12:16:00.019Z,24.10
2018-09-09T12:21:03.167Z,23.90
2018-09-09T12:26:06.814Z,23.70
2018-09-09T12:31:09.840Z,23.70
2018-09-09T12:36:12.882Z,23.80
2018-09-09T12:41:16.044Z,24.00
2018-09-09T12:46:24.606Z,24.00
2018-09-09T12:51:27.745Z,24.10
2018-09-09T12:56:30.890Z,24.20
2018-09-09T13:01:33.903Z,24.20
2018-09-09T13:06:37.003Z,24.20
2018-09-09T13:11:40.120Z,24.20
2018-09-09T13:16:43.318Z,24.10
2018-09-09T13:21:47.361Z,24.10
2018-09-09T13:26:50.452Z,24.10
2018-09-09T13:31:53.615Z,24.30
2018-09-09T13:36:56.672Z,24.40
2018-09-09T13:41:59.771Z,24.60
2018-09-09T13:47:03.131Z,24.80
2018-09-09T13:52:06.768Z,24.70
2018-09-09T13:57:09.864Z,24.60
2018-09-09T14:02:12.886Z,24.60
2018-09-09T14:07:15.935Z,24.60
2018-09-09T14:12:18.996Z,24.60
2018-09-09T14:17:23.013Z,24.50
2018-09-09T14:22:26.147Z,24.50
2018-09-09T14:27:29.086Z,24.50
2018-09-09T14:32:32.679Z,24.40
2018-09-09T14:37:35.755Z,24.30
2018-09-09T14:42:38.812Z,24.40
2018-09-09T14:47:41.892Z,24.30
2018-09-09T14:52:45.065Z,24.30
2018-09-09T14:57:48.220Z,24.20
2018-09-09T15:02:51.304Z,24.20
2018-09-09T15:07:54.335Z,24.20
2018-09-09T15:12:57.367Z,24.20
2018-09-09T15:18:00.677Z,24.10
2018-09-09T15:23:03.722Z,24.10
2018-09-09T15:28:06.810Z,24.10
2018-09-09T15:33:10.994Z,23.90
2018-09-09T15:38:14.026Z,23.90
2018-09-09T15:43:17.237Z,24.00
2018-09-09T15:48:20.326Z,23.90
2018-09-09T15:53:23.408Z,23.90
2018-09-09T15:58:27.165Z,23.70
2018-09-09T16:03:30.241Z,23.70
2018-09-09T16:08:33.301Z,23.70
2018-09-09T16:13:36.438Z,23.60
2018-09-09T16:18:39.459Z,23.60
2018-09-09T16:23:42.531Z,23.50
2018-09-09T16:28:45.620Z,23.30
2018-09-09T16:33:48.658Z,23.10
2018-09-09T16:38:51.684Z,23.10
2018-09-09T16:43:54.780Z,23.00
2018-09-09T16:48:57.814Z,22.90
2018-09-09T16:54:01.903Z,22.70
2018-09-09T16:59:05.332Z,22.60
2018-09-09T17:04:08.402Z,22.40
2018-09-09T17:09:12.016Z,22.20
2018-09-09T17:14:18.483Z,22.10
2018-09-09T17:19:21.519Z,21.90
2018-09-09T17:24:24.673Z,21.70
2018-09-09T17:29:28.134Z,21.50
2018-09-09T17:34:32.264Z,21.20
2018-09-09T17:39:35.465Z,21.00
2018-09-09T17:44:38.512Z,20.70
2018-09-09T17:49:41.902Z,20.50
2018-09-09T17:54:45.035Z,20.30
2018-09-09T17:59:48.636Z,20.10
2018-09-09T18:04:51.780Z,19.90
2018-09-09T18:09:55.299Z,19.60
2018-09-09T18:14:58.464Z,19.50
2018-09-09T18:20:01.854Z,19.30
2018-09-09T18:25:04.945Z,19.00
2018-09-09T18:30:08.090Z,18.90
2018-09-09T18:35:11.153Z,18.70
2018-09-09T18:40:14.361Z,18.50
2018-09-09T18:45:18.900Z,18.40
2018-09-09T18:50:21.952Z,18.30
2018-09-09T18:55:25.569Z,18.10
2018-09-09T19:00:31.449Z,18.00
2018-09-09T19:05:34.602Z,17.90
2018-09-09T19:10:37.759Z,17.80
2018-09-09T19:15:40.855Z,17.60
2018-09-09T19:20:44.096Z,17.50
2018-09-09T19:25:47.387Z,17.40
2018-09-09T19:30:51.112Z,17.30
2018-09-09T19:35:54.858Z,17.20
2018-09-09T19:41:01.409Z,17.20
2018-09-09T19:46:04.480Z,17.10
2018-09-09T19:51:07.877Z,17.00
2018-09-09T19:56:11.030Z,16.90
2018-09-09T20:01:14.104Z,16.80
2018-09-09T20:06:17.176Z,16.70
2018-09-09T20:11:20.261Z,16.60
2018-09-09T20:16:23.477Z,16.50
2018-09-09T20:21:27.653Z,16.50
2018-09-09T20:26:31.021Z,16.40
2018-09-09T20:31:34.200Z,16.30
2018-09-09T20:36:37.289Z,16.30
2018-09-09T20:41:40.736Z,16.30
2018-09-09T20:46:44.055Z,16.30
2018-09-09T20:51:47.181Z,16.30
2018-09-09T20:56:50.224Z,16.30
2018-09-09T21:01:53.354Z,16.30
2018-09-09T21:06:56.454Z,16.20
2018-09-09T21:11:59.501Z,16.10
2018-09-09T21:17:02.614Z,16.10
2018-09-09T21:22:06.003Z,16.00
2018-09-09T21:27:09.176Z,15.90
2018-09-09T21:32:12.214Z,15.90
2018-09-09T21:37:15.272Z,15.80
2018-09-09T21:42:18.335Z,15.80
2018-09-09T21:47:21.371Z,15.70
2018-09-09T21:52:24.378Z,15.60
2018-09-09T21:57:27.397Z,15.60
2018-09-09T22:02:30.473Z,15.50
2018-09-09T22:07:33.489Z,15.50
2018-09-09T22:12:36.550Z,15.40
2018-09-09T22:17:39.579Z,15.30
2018-09-09T22:22:42.621Z,15.30
2018-09-09T22:27:45.659Z,15.20
2018-09-09T22:32:48.701Z,15.10
2018-09-09T22:37:51.752Z,15.00
2018-09-09T22:42:54.910Z,14.90
2018-09-09T22:47:57.963Z,14.90
2018-09-09T22:53:01.079Z,14.80
2018-09-09T22:58:04.111Z,14.70
2018-09-09T23:03:07.365Z,14.70
2018-09-09T23:08:10.406Z,14.60
2018-09-09T23:13:13.440Z,14.50
2018-09-09T23:18:16.499Z,14.40
2018-09-09T23:23:19.535Z,14.40
2018-09-09T23:28:22.592Z,14.30
2018-09-09T23:33:25.627Z,14.20
2018-09-09T23:38:28.650Z,14.20
2018-09-09T23:43:31.687Z,14.10
2018-09-09T23:48:34.848Z,14.10
2018-09-09T23:53:37.911Z,14.00
2018-09-09T23:58:40.969Z,14.00
